Aviation Digital Data Service (ADDS)

Output produced by METARs form (2240 UTC 01 February 2023)
found at http://www.aviationweather.gov/metar/data/
 
KFLO 012153Z 04012KT 10SM OVC016 11/06 A3021 RMK AO2 SLP228 T01060061
KFLO 011927Z 0119/0218 04010KT P6SM OVC012 
     FM012300 05008KT P6SM OVC020 
     FM020500 07006KT P6SM OVC008 
     FM021200 VRB03KT 2SM BR OVC005